sensor_id;sensor_type;location;lat;lon;timestamp;P1;durP1;ratioP1;P2;durP2;ratioP2
67665;SDS011;54448;51.472;-2.574;2022-08-19T00:01:21;2.42;;;0.60;;
67665;SDS011;54448;51.472;-2.574;2022-08-19T00:03:47;2.00;;;0.90;;
67665;SDS011;54448;51.472;-2.574;2022-08-19T00:06:13;3.67;;;0.60;;
67665;SDS011;54448;51.472;-2.574;2022-08-19T00:08:39;1.33;;;0.50;;
67665;SDS011;54448;51.472;-2.574;2022-08-19T00:11:05;1.10;;;0.50;;
67665;SDS011;54448;51.472;-2.574;2022-08-19T00:13:32;1.15;;;0.52;;
67665;SDS011;54448;51.472;-2.574;2022-08-19T00:15:58;2.80;;;0.70;;
67665;SDS011;54448;51.472;-2.574;2022-08-19T00:18:24;3.10;;;0.85;;
67665;SDS011;54448;51.472;-2.574;2022-08-19T00:20:50;4.57;;;0.90;;
67665;SDS011;54448;51.472;-2.574;2022-08-19T00:23:16;4.90;;;1.25;;
67665;SDS011;54448;51.472;-2.574;2022-08-19T00:25:41;6.13;;;1.05;;
67665;SDS011;54448;51.472;-2.574;2022-08-19T00:28:07;5.53;;;1.20;;
67665;SDS011;54448;51.472;-2.574;2022-08-19T00:30:32;7.22;;;1.20;;
67665;SDS011;54448;51.472;-2.574;2022-08-19T00:32:58;8.45;;;1.50;;
67665;SDS011;54448;51.472;-2.574;2022-08-19T00:35:24;8.60;;;1.35;;
67665;SDS011;54448;51.472;-2.574;2022-08-19T00:37:52;10.10;;;1.20;;
67665;SDS011;54448;51.472;-2.574;2022-08-19T00:40:17;12.48;;;1.40;;
67665;SDS011;54448;51.472;-2.574;2022-08-19T00:42:44;8.02;;;1.13;;
67665;SDS011;54448;51.472;-2.574;2022-08-19T00:45:12;7.97;;;1.02;;
67665;SDS011;54448;51.472;-2.574;2022-08-19T00:47:42;7.95;;;1.33;;
67665;SDS011;54448;51.472;-2.574;2022-08-19T00:50:08;9.60;;;1.23;;
67665;SDS011;54448;51.472;-2.574;2022-08-19T00:52:36;8.63;;;1.15;;
67665;SDS011;54448;51.472;-2.574;2022-08-19T00:55:05;8.88;;;0.98;;
67665;SDS011;54448;51.472;-2.574;2022-08-19T00:57:40;6.32;;;1.35;;
67665;SDS011;54448;51.472;-2.574;2022-08-19T01:00:08;8.43;;;1.55;;
67665;SDS011;54448;51.472;-2.574;2022-08-19T01:02:37;7.40;;;1.40;;
67665;SDS011;54448;51.472;-2.574;2022-08-19T01:05:05;7.80;;;1.63;;
67665;SDS011;54448;51.472;-2.574;2022-08-19T01:07:34;6.35;;;1.00;;
67665;SDS011;54448;51.472;-2.574;2022-08-19T01:10:00;4.60;;;0.90;;
67665;SDS011;54448;51.472;-2.574;2022-08-19T01:12:26;4.35;;;0.75;;
67665;SDS011;54448;51.472;-2.574;2022-08-19T01:14:51;3.80;;;1.15;;
67665;SDS011;54448;51.472;-2.574;2022-08-19T01:17:17;4.28;;;1.10;;
67665;SDS011;54448;51.472;-2.574;2022-08-19T01:19:46;8.68;;;1.67;;
67665;SDS011;54448;51.472;-2.574;2022-08-19T01:22:15;3.33;;;0.82;;
67665;SDS011;54448;51.472;-2.574;2022-08-19T01:24:44;5.30;;;1.08;;
67665;SDS011;54448;51.472;-2.574;2022-08-19T01:27:10;4.20;;;1.15;;
67665;SDS011;54448;51.472;-2.574;2022-08-19T01:29:36;5.80;;;1.30;;
67665;SDS011;54448;51.472;-2.574;2022-08-19T01:32:03;5.45;;;1.10;;
67665;SDS011;54448;51.472;-2.574;2022-08-19T01:34:29;5.32;;;1.48;;
67665;SDS011;54448;51.472;-2.574;2022-08-19T01:36:55;5.97;;;1.10;;
67665;SDS011;54448;51.472;-2.574;2022-08-19T01:39:22;4.47;;;1.00;;
67665;SDS011;54448;51.472;-2.574;2022-08-19T01:41:49;4.47;;;1.20;;
67665;SDS011;54448;51.472;-2.574;2022-08-19T01:44:17;5.22;;;1.50;;
67665;SDS011;54448;51.472;-2.574;2022-08-19T01:46:48;5.13;;;1.15;;
67665;SDS011;54448;51.472;-2.574;2022-08-19T01:49:16;9.50;;;1.80;;
67665;SDS011;54448;51.472;-2.574;2022-08-19T01:51:43;6.20;;;1.40;;
67665;SDS011;54448;51.472;-2.574;2022-08-19T01:54:09;15.90;;;2.17;;
67665;SDS011;54448;51.472;-2.574;2022-08-19T01:56:35;6.65;;;1.88;;
67665;SDS011;54448;51.472;-2.574;2022-08-19T01:59:02;6.38;;;1.88;;
67665;SDS011;54448;51.472;-2.574;2022-08-19T02:01:30;4.50;;;1.95;;
67665;SDS011;54448;51.472;-2.574;2022-08-19T02:03:57;8.60;;;1.95;;
67665;SDS011;54448;51.472;-2.574;2022-08-19T02:06:28;14.98;;;2.20;;
67665;SDS011;54448;51.472;-2.574;2022-08-19T02:08:54;9.35;;;2.20;;
67665;SDS011;54448;51.472;-2.574;2022-08-19T02:11:27;13.32;;;1.92;;
67665;SDS011;54448;51.472;-2.574;2022-08-19T02:13:56;12.30;;;2.42;;
67665;SDS011;54448;51.472;-2.574;2022-08-19T02:16:22;9.18;;;2.53;;
67665;SDS011;54448;51.472;-2.574;2022-08-19T02:18:48;9.68;;;2.50;;
67665;SDS011;54448;51.472;-2.574;2022-08-19T02:21:17;6.65;;;1.90;;
67665;SDS011;54448;51.472;-2.574;2022-08-19T02:23:44;12.43;;;2.20;;
67665;SDS011;54448;51.472;-2.574;2022-08-19T02:26:10;10.18;;;2.80;;
67665;SDS011;54448;51.472;-2.574;2022-08-19T02:28:35;10.18;;;2.60;;
67665;SDS011;54448;51.472;-2.574;2022-08-19T02:31:01;17.75;;;2.80;;
67665;SDS011;54448;51.472;-2.574;2022-08-19T02:33:27;9.45;;;2.47;;
67665;SDS011;54448;51.472;-2.574;2022-08-19T02:35:53;12.20;;;2.60;;
67665;SDS011;54448;51.472;-2.574;2022-08-19T02:38:18;9.57;;;2.33;;
67665;SDS011;54448;51.472;-2.574;2022-08-19T02:40:54;15.60;;;2.63;;
67665;SDS011;54448;51.472;-2.574;2022-08-19T02:43:30;11.43;;;2.75;;
67665;SDS011;54448;51.472;-2.574;2022-08-19T02:46:00;14.15;;;2.13;;
67665;SDS011;54448;51.472;-2.574;2022-08-19T02:48:26;14.98;;;2.33;;
67665;SDS011;54448;51.472;-2.574;2022-08-19T02:50:52;22.38;;;2.70;;
67665;SDS011;54448;51.472;-2.574;2022-08-19T02:55:56;16.40;;;2.53;;
67665;SDS011;54448;51.472;-2.574;2022-08-19T02:58:22;12.50;;;2.08;;
67665;SDS011;54448;51.472;-2.574;2022-08-19T03:00:49;13.77;;;2.67;;
67665;SDS011;54448;51.472;-2.574;2022-08-19T03:03:17;16.40;;;2.70;;
67665;SDS011;54448;51.472;-2.574;2022-08-19T03:05:43;12.85;;;2.45;;
67665;SDS011;54448;51.472;-2.574;2022-08-19T03:08:10;10.32;;;2.35;;
67665;SDS011;54448;51.472;-2.574;2022-08-19T03:10:45;14.50;;;2.05;;
67665;SDS011;54448;51.472;-2.574;2022-08-19T03:13:12;18.92;;;2.40;;
67665;SDS011;54448;51.472;-2.574;2022-08-19T03:15:40;16.52;;;2.78;;
67665;SDS011;54448;51.472;-2.574;2022-08-19T03:18:07;16.98;;;2.53;;
67665;SDS011;54448;51.472;-2.574;2022-08-19T03:20:32;17.85;;;2.58;;
67665;SDS011;54448;51.472;-2.574;2022-08-19T03:22:58;17.48;;;3.00;;
67665;SDS011;54448;51.472;-2.574;2022-08-19T03:25:23;12.98;;;2.40;;
67665;SDS011;54448;51.472;-2.574;2022-08-19T03:27:49;13.27;;;2.20;;
67665;SDS011;54448;51.472;-2.574;2022-08-19T03:30:15;22.00;;;3.00;;
67665;SDS011;54448;51.472;-2.574;2022-08-19T03:32:40;22.30;;;2.70;;
67665;SDS011;54448;51.472;-2.574;2022-08-19T03:35:06;16.38;;;3.38;;
67665;SDS011;54448;51.472;-2.574;2022-08-19T03:37:31;20.95;;;2.78;;
67665;SDS011;54448;51.472;-2.574;2022-08-19T03:39:57;23.10;;;2.80;;
67665;SDS011;54448;51.472;-2.574;2022-08-19T03:42:22;17.10;;;3.10;;
67665;SDS011;54448;51.472;-2.574;2022-08-19T03:44:48;17.00;;;2.67;;
67665;SDS011;54448;51.472;-2.574;2022-08-19T03:47:13;14.13;;;2.75;;
67665;SDS011;54448;51.472;-2.574;2022-08-19T03:49:41;21.95;;;3.88;;
67665;SDS011;54448;51.472;-2.574;2022-08-19T03:52:07;24.08;;;3.40;;
67665;SDS011;54448;51.472;-2.574;2022-08-19T03:54:33;20.23;;;4.00;;
67665;SDS011;54448;51.472;-2.574;2022-08-19T03:56:58;16.75;;;3.95;;
67665;SDS011;54448;51.472;-2.574;2022-08-19T03:59:25;24.25;;;4.13;;
67665;SDS011;54448;51.472;-2.574;2022-08-19T04:01:56;23.58;;;3.35;;
67665;SDS011;54448;51.472;-2.574;2022-08-19T04:04:23;27.48;;;3.47;;
67665;SDS011;54448;51.472;-2.574;2022-08-19T04:06:48;21.52;;;3.92;;
67665;SDS011;54448;51.472;-2.574;2022-08-19T04:09:15;31.80;;;4.00;;
67665;SDS011;54448;51.472;-2.574;2022-08-19T04:11:42;28.42;;;3.40;;
67665;SDS011;54448;51.472;-2.574;2022-08-19T04:14:11;18.85;;;3.70;;
67665;SDS011;54448;51.472;-2.574;2022-08-19T04:16:38;23.63;;;3.63;;
67665;SDS011;54448;51.472;-2.574;2022-08-19T04:19:03;21.48;;;3.55;;
67665;SDS011;54448;51.472;-2.574;2022-08-19T04:21:29;15.30;;;3.65;;
67665;SDS011;54448;51.472;-2.574;2022-08-19T04:23:55;20.65;;;3.80;;
67665;SDS011;54448;51.472;-2.574;2022-08-19T04:26:23;21.90;;;3.83;;
67665;SDS011;54448;51.472;-2.574;2022-08-19T04:28:53;31.23;;;4.00;;
67665;SDS011;54448;51.472;-2.574;2022-08-19T04:31:20;29.67;;;4.38;;
67665;SDS011;54448;51.472;-2.574;2022-08-19T04:33:47;29.45;;;4.05;;
67665;SDS011;54448;51.472;-2.574;2022-08-19T04:36:20;23.48;;;4.07;;
67665;SDS011;54448;51.472;-2.574;2022-08-19T04:38:48;26.10;;;3.92;;
67665;SDS011;54448;51.472;-2.574;2022-08-19T04:41:14;17.08;;;4.60;;
67665;SDS011;54448;51.472;-2.574;2022-08-19T04:43:58;35.15;;;5.10;;
67665;SDS011;54448;51.472;-2.574;2022-08-19T04:46:24;25.15;;;4.35;;
67665;SDS011;54448;51.472;-2.574;2022-08-19T04:48:49;22.85;;;4.13;;
67665;SDS011;54448;51.472;-2.574;2022-08-19T04:51:14;20.25;;;3.83;;
67665;SDS011;54448;51.472;-2.574;2022-08-19T04:53:41;18.13;;;4.25;;
67665;SDS011;54448;51.472;-2.574;2022-08-19T04:56:10;34.15;;;5.15;;
67665;SDS011;54448;51.472;-2.574;2022-08-19T04:58:39;28.50;;;4.93;;
67665;SDS011;54448;51.472;-2.574;2022-08-19T05:01:07;28.48;;;5.40;;
67665;SDS011;54448;51.472;-2.574;2022-08-19T05:03:33;27.65;;;4.50;;
67665;SDS011;54448;51.472;-2.574;2022-08-19T05:06:06;20.55;;;4.72;;
67665;SDS011;54448;51.472;-2.574;2022-08-19T05:08:33;23.65;;;4.40;;
67665;SDS011;54448;51.472;-2.574;2022-08-19T05:11:01;27.45;;;4.85;;
67665;SDS011;54448;51.472;-2.574;2022-08-19T05:13:31;29.88;;;4.65;;
67665;SDS011;54448;51.472;-2.574;2022-08-19T05:15:58;25.42;;;4.47;;
67665;SDS011;54448;51.472;-2.574;2022-08-19T05:18:24;23.80;;;4.85;;
67665;SDS011;54448;51.472;-2.574;2022-08-19T05:21:09;25.17;;;5.57;;
67665;SDS011;54448;51.472;-2.574;2022-08-19T05:23:54;27.30;;;4.80;;
67665;SDS011;54448;51.472;-2.574;2022-08-19T05:26:20;27.35;;;5.25;;
67665;SDS011;54448;51.472;-2.574;2022-08-19T05:28:45;27.45;;;5.45;;
67665;SDS011;54448;51.472;-2.574;2022-08-19T05:31:10;20.98;;;5.60;;
67665;SDS011;54448;51.472;-2.574;2022-08-19T05:33:37;22.13;;;4.95;;
67665;SDS011;54448;51.472;-2.574;2022-08-19T05:36:03;31.08;;;5.43;;
67665;SDS011;54448;51.472;-2.574;2022-08-19T05:38:29;23.15;;;5.45;;
67665;SDS011;54448;51.472;-2.574;2022-08-19T05:40:55;24.67;;;5.25;;
67665;SDS011;54448;51.472;-2.574;2022-08-19T05:43:20;26.92;;;5.07;;
67665;SDS011;54448;51.472;-2.574;2022-08-19T05:45:46;28.40;;;6.05;;
67665;SDS011;54448;51.472;-2.574;2022-08-19T05:48:11;19.70;;;5.35;;
67665;SDS011;54448;51.472;-2.574;2022-08-19T05:50:38;21.67;;;4.70;;
67665;SDS011;54448;51.472;-2.574;2022-08-19T05:53:04;26.30;;;4.47;;
67665;SDS011;54448;51.472;-2.574;2022-08-19T05:55:30;21.83;;;4.55;;
67665;SDS011;54448;51.472;-2.574;2022-08-19T05:57:56;28.73;;;4.65;;
67665;SDS011;54448;51.472;-2.574;2022-08-19T06:00:21;26.33;;;4.88;;
67665;SDS011;54448;51.472;-2.574;2022-08-19T06:02:48;22.63;;;4.75;;
67665;SDS011;54448;51.472;-2.574;2022-08-19T06:05:13;24.30;;;4.85;;
67665;SDS011;54448;51.472;-2.574;2022-08-19T06:07:39;21.27;;;4.45;;
67665;SDS011;54448;51.472;-2.574;2022-08-19T06:10:05;20.70;;;4.18;;
67665;SDS011;54448;51.472;-2.574;2022-08-19T06:12:34;24.50;;;4.43;;
67665;SDS011;54448;51.472;-2.574;2022-08-19T06:15:01;17.35;;;3.60;;
67665;SDS011;54448;51.472;-2.574;2022-08-19T06:17:29;20.88;;;4.13;;
67665;SDS011;54448;51.472;-2.574;2022-08-19T06:19:55;22.10;;;3.63;;
67665;SDS011;54448;51.472;-2.574;2022-08-19T06:22:20;28.90;;;5.28;;
67665;SDS011;54448;51.472;-2.574;2022-08-19T06:24:46;18.88;;;3.55;;
67665;SDS011;54448;51.472;-2.574;2022-08-19T06:27:11;24.80;;;4.85;;
67665;SDS011;54448;51.472;-2.574;2022-08-19T06:29:37;22.63;;;3.92;;
67665;SDS011;54448;51.472;-2.574;2022-08-19T06:32:03;19.02;;;3.95;;
67665;SDS011;54448;51.472;-2.574;2022-08-19T06:34:29;14.15;;;3.00;;
67665;SDS011;54448;51.472;-2.574;2022-08-19T06:36:57;15.93;;;3.58;;
67665;SDS011;54448;51.472;-2.574;2022-08-19T06:39:28;13.15;;;2.70;;
67665;SDS011;54448;51.472;-2.574;2022-08-19T06:41:58;16.90;;;3.13;;
67665;SDS011;54448;51.472;-2.574;2022-08-19T06:44:28;15.40;;;2.80;;
67665;SDS011;54448;51.472;-2.574;2022-08-19T06:46:59;18.58;;;3.20;;
67665;SDS011;54448;51.472;-2.574;2022-08-19T06:49:27;18.65;;;2.70;;
67665;SDS011;54448;51.472;-2.574;2022-08-19T06:51:56;26.70;;;3.00;;
67665;SDS011;54448;51.472;-2.574;2022-08-19T06:54:22;13.43;;;2.63;;
67665;SDS011;54448;51.472;-2.574;2022-08-19T06:56:48;15.32;;;2.97;;
67665;SDS011;54448;51.472;-2.574;2022-08-19T06:59:21;15.05;;;2.75;;
67665;SDS011;54448;51.472;-2.574;2022-08-19T07:01:49;15.77;;;2.65;;
67665;SDS011;54448;51.472;-2.574;2022-08-19T07:04:16;12.32;;;3.22;;
67665;SDS011;54448;51.472;-2.574;2022-08-19T07:06:44;13.30;;;2.50;;
67665;SDS011;54448;51.472;-2.574;2022-08-19T07:09:10;13.80;;;1.98;;
67665;SDS011;54448;51.472;-2.574;2022-08-19T07:11:37;11.23;;;2.33;;
67665;SDS011;54448;51.472;-2.574;2022-08-19T07:14:03;16.08;;;2.47;;
67665;SDS011;54448;51.472;-2.574;2022-08-19T07:16:31;11.85;;;2.40;;
67665;SDS011;54448;51.472;-2.574;2022-08-19T07:18:57;12.20;;;2.30;;
67665;SDS011;54448;51.472;-2.574;2022-08-19T07:21:24;15.88;;;2.53;;
67665;SDS011;54448;51.472;-2.574;2022-08-19T07:23:52;14.50;;;2.50;;
67665;SDS011;54448;51.472;-2.574;2022-08-19T07:26:20;15.77;;;2.78;;
67665;SDS011;54448;51.472;-2.574;2022-08-19T07:28:50;14.55;;;2.70;;
67665;SDS011;54448;51.472;-2.574;2022-08-19T07:31:18;14.82;;;2.72;;
67665;SDS011;54448;51.472;-2.574;2022-08-19T07:33:45;14.55;;;2.45;;
67665;SDS011;54448;51.472;-2.574;2022-08-19T07:36:12;11.77;;;2.65;;
67665;SDS011;54448;51.472;-2.574;2022-08-19T07:38:43;13.48;;;3.10;;
67665;SDS011;54448;51.472;-2.574;2022-08-19T07:41:18;10.63;;;2.80;;
67665;SDS011;54448;51.472;-2.574;2022-08-19T07:43:46;14.55;;;2.85;;
67665;SDS011;54448;51.472;-2.574;2022-08-19T07:46:12;15.23;;;2.15;;
67665;SDS011;54448;51.472;-2.574;2022-08-19T07:48:38;12.05;;;1.80;;
67665;SDS011;54448;51.472;-2.574;2022-08-19T07:51:06;12.07;;;2.28;;
67665;SDS011;54448;51.472;-2.574;2022-08-19T07:53:33;10.85;;;2.40;;
67665;SDS011;54448;51.472;-2.574;2022-08-19T07:55:59;13.27;;;2.35;;
67665;SDS011;54448;51.472;-2.574;2022-08-19T07:58:28;20.90;;;2.30;;
67665;SDS011;54448;51.472;-2.574;2022-08-19T08:00:54;15.55;;;2.58;;
67665;SDS011;54448;51.472;-2.574;2022-08-19T08:03:20;13.55;;;2.78;;
67665;SDS011;54448;51.472;-2.574;2022-08-19T08:06:06;12.02;;;2.60;;
67665;SDS011;54448;51.472;-2.574;2022-08-19T08:08:51;12.70;;;2.22;;
67665;SDS011;54448;51.472;-2.574;2022-08-19T08:11:34;13.18;;;2.35;;
67665;SDS011;54448;51.472;-2.574;2022-08-19T08:14:00;19.05;;;2.78;;
67665;SDS011;54448;51.472;-2.574;2022-08-19T08:16:26;12.35;;;2.70;;
67665;SDS011;54448;51.472;-2.574;2022-08-19T08:18:55;14.07;;;2.30;;
67665;SDS011;54448;51.472;-2.574;2022-08-19T08:21:20;14.30;;;2.53;;
67665;SDS011;54448;51.472;-2.574;2022-08-19T08:23:45;14.40;;;2.10;;
67665;SDS011;54448;51.472;-2.574;2022-08-19T08:26:11;14.38;;;2.25;;
67665;SDS011;54448;51.472;-2.574;2022-08-19T08:28:37;16.80;;;2.40;;
67665;SDS011;54448;51.472;-2.574;2022-08-19T08:31:03;11.15;;;1.98;;
67665;SDS011;54448;51.472;-2.574;2022-08-19T08:33:29;12.10;;;2.40;;
67665;SDS011;54448;51.472;-2.574;2022-08-19T08:35:55;12.57;;;2.75;;
67665;SDS011;54448;51.472;-2.574;2022-08-19T08:38:21;21.80;;;2.80;;
67665;SDS011;54448;51.472;-2.574;2022-08-19T08:40:48;13.40;;;2.30;;
67665;SDS011;54448;51.472;-2.574;2022-08-19T08:43:27;12.52;;;2.38;;
67665;SDS011;54448;51.472;-2.574;2022-08-19T08:48:39;15.60;;;2.30;;
67665;SDS011;54448;51.472;-2.574;2022-08-19T08:51:13;12.90;;;2.42;;
67665;SDS011;54448;51.472;-2.574;2022-08-19T08:53:43;13.30;;;2.53;;
67665;SDS011;54448;51.472;-2.574;2022-08-19T08:56:10;13.27;;;2.20;;
67665;SDS011;54448;51.472;-2.574;2022-08-19T08:58:46;12.35;;;2.35;;
67665;SDS011;54448;51.472;-2.574;2022-08-19T09:01:28;14.38;;;2.10;;
67665;SDS011;54448;51.472;-2.574;2022-08-19T09:03:54;17.10;;;2.97;;
67665;SDS011;54448;51.472;-2.574;2022-08-19T09:06:32;11.00;;;2.13;;
67665;SDS011;54448;51.472;-2.574;2022-08-19T09:09:20;10.80;;;2.42;;
67665;SDS011;54448;51.472;-2.574;2022-08-19T09:12:10;10.45;;;1.98;;
67665;SDS011;54448;51.472;-2.574;2022-08-19T09:14:58;14.45;;;2.38;;
67665;SDS011;54448;51.472;-2.574;2022-08-19T09:17:27;13.85;;;2.45;;
67665;SDS011;54448;51.472;-2.574;2022-08-19T09:20:06;10.60;;;2.30;;
67665;SDS011;54448;51.472;-2.574;2022-08-19T09:22:41;8.80;;;2.10;;
67665;SDS011;54448;51.472;-2.574;2022-08-19T09:25:11;13.35;;;2.60;;
67665;SDS011;54448;51.472;-2.574;2022-08-19T09:27:39;8.25;;;2.30;;
67665;SDS011;54448;51.472;-2.574;2022-08-19T09:30:06;11.68;;;2.20;;
67665;SDS011;54448;51.472;-2.574;2022-08-19T09:32:32;12.70;;;2.17;;
67665;SDS011;54448;51.472;-2.574;2022-08-19T09:34:57;11.07;;;2.40;;
67665;SDS011;54448;51.472;-2.574;2022-08-19T09:37:25;13.13;;;2.28;;
67665;SDS011;54448;51.472;-2.574;2022-08-19T09:39:51;14.00;;;2.47;;
67665;SDS011;54448;51.472;-2.574;2022-08-19T09:42:17;8.20;;;2.10;;
67665;SDS011;54448;51.472;-2.574;2022-08-19T09:44:43;14.38;;;2.20;;
67665;SDS011;54448;51.472;-2.574;2022-08-19T09:47:09;16.05;;;2.28;;
67665;SDS011;54448;51.472;-2.574;2022-08-19T09:49:36;11.02;;;2.40;;
67665;SDS011;54448;51.472;-2.574;2022-08-19T09:52:02;14.10;;;2.42;;
67665;SDS011;54448;51.472;-2.574;2022-08-19T09:54:28;12.40;;;2.78;;
67665;SDS011;54448;51.472;-2.574;2022-08-19T09:56:54;13.98;;;2.80;;
67665;SDS011;54448;51.472;-2.574;2022-08-19T09:59:20;14.95;;;2.60;;
67665;SDS011;54448;51.472;-2.574;2022-08-19T10:01:46;16.42;;;3.03;;
67665;SDS011;54448;51.472;-2.574;2022-08-19T10:04:11;14.70;;;2.60;;
67665;SDS011;54448;51.472;-2.574;2022-08-19T10:06:38;15.63;;;2.72;;
67665;SDS011;54448;51.472;-2.574;2022-08-19T10:09:08;12.98;;;2.90;;
67665;SDS011;54448;51.472;-2.574;2022-08-19T10:11:34;18.85;;;3.08;;
67665;SDS011;54448;51.472;-2.574;2022-08-19T10:14:04;21.42;;;2.75;;
67665;SDS011;54448;51.472;-2.574;2022-08-19T10:16:30;18.25;;;2.58;;
67665;SDS011;54448;51.472;-2.574;2022-08-19T10:18:56;19.45;;;2.67;;
67665;SDS011;54448;51.472;-2.574;2022-08-19T10:21:23;25.77;;;2.70;;
67665;SDS011;54448;51.472;-2.574;2022-08-19T10:23:51;12.35;;;2.30;;
67665;SDS011;54448;51.472;-2.574;2022-08-19T10:26:24;16.75;;;3.05;;
67665;SDS011;54448;51.472;-2.574;2022-08-19T10:28:51;13.60;;;2.67;;
67665;SDS011;54448;51.472;-2.574;2022-08-19T10:31:20;15.38;;;2.70;;
67665;SDS011;54448;51.472;-2.574;2022-08-19T10:33:50;11.68;;;2.65;;
67665;SDS011;54448;51.472;-2.574;2022-08-19T10:36:20;16.77;;;3.05;;
67665;SDS011;54448;51.472;-2.574;2022-08-19T10:38:48;14.20;;;2.90;;
67665;SDS011;54448;51.472;-2.574;2022-08-19T10:41:19;14.18;;;2.65;;
67665;SDS011;54448;51.472;-2.574;2022-08-19T10:43:49;12.55;;;2.80;;
67665;SDS011;54448;51.472;-2.574;2022-08-19T10:46:17;20.85;;;2.90;;
67665;SDS011;54448;51.472;-2.574;2022-08-19T10:48:43;16.55;;;3.08;;
67665;SDS011;54448;51.472;-2.574;2022-08-19T10:51:09;21.63;;;2.53;;
67665;SDS011;54448;51.472;-2.574;2022-08-19T10:53:53;15.65;;;2.67;;
67665;SDS011;54448;51.472;-2.574;2022-08-19T10:56:20;17.20;;;2.60;;
67665;SDS011;54448;51.472;-2.574;2022-08-19T10:59:04;17.88;;;3.50;;
67665;SDS011;54448;51.472;-2.574;2022-08-19T11:01:30;16.58;;;2.78;;
67665;SDS011;54448;51.472;-2.574;2022-08-19T11:03:59;14.02;;;2.97;;
67665;SDS011;54448;51.472;-2.574;2022-08-19T11:06:28;19.83;;;3.03;;
67665;SDS011;54448;51.472;-2.574;2022-08-19T11:08:55;20.02;;;2.80;;
67665;SDS011;54448;51.472;-2.574;2022-08-19T11:11:20;13.15;;;2.67;;
67665;SDS011;54448;51.472;-2.574;2022-08-19T11:13:46;14.15;;;3.00;;
67665;SDS011;54448;51.472;-2.574;2022-08-19T11:16:18;15.43;;;2.85;;
67665;SDS011;54448;51.472;-2.574;2022-08-19T11:18:46;9.63;;;2.33;;
67665;SDS011;54448;51.472;-2.574;2022-08-19T11:21:14;17.45;;;2.92;;
67665;SDS011;54448;51.472;-2.574;2022-08-19T11:23:45;20.30;;;2.90;;
67665;SDS011;54448;51.472;-2.574;2022-08-19T11:26:12;16.05;;;3.20;;
67665;SDS011;54448;51.472;-2.574;2022-08-19T11:28:38;15.88;;;2.60;;
67665;SDS011;54448;51.472;-2.574;2022-08-19T11:31:03;16.33;;;3.05;;
67665;SDS011;54448;51.472;-2.574;2022-08-19T11:33:31;17.33;;;3.15;;
67665;SDS011;54448;51.472;-2.574;2022-08-19T11:35:58;13.43;;;2.38;;
67665;SDS011;54448;51.472;-2.574;2022-08-19T11:38:25;14.45;;;2.85;;
67665;SDS011;54448;51.472;-2.574;2022-08-19T11:40:58;14.10;;;2.67;;
67665;SDS011;54448;51.472;-2.574;2022-08-19T11:43:25;19.33;;;2.72;;
67665;SDS011;54448;51.472;-2.574;2022-08-19T11:45:52;12.02;;;2.50;;
67665;SDS011;54448;51.472;-2.574;2022-08-19T11:48:21;12.40;;;3.33;;
67665;SDS011;54448;51.472;-2.574;2022-08-19T11:50:51;14.07;;;2.35;;
67665;SDS011;54448;51.472;-2.574;2022-08-19T11:53:18;13.95;;;2.35;;
67665;SDS011;54448;51.472;-2.574;2022-08-19T11:55:45;21.52;;;2.35;;
67665;SDS011;54448;51.472;-2.574;2022-08-19T11:58:12;13.82;;;2.85;;
67665;SDS011;54448;51.472;-2.574;2022-08-19T12:00:39;13.00;;;2.53;;
67665;SDS011;54448;51.472;-2.574;2022-08-19T12:03:05;12.80;;;2.53;;
67665;SDS011;54448;51.472;-2.574;2022-08-19T12:05:30;15.73;;;2.50;;
67665;SDS011;54448;51.472;-2.574;2022-08-19T12:07:56;12.65;;;2.35;;
67665;SDS011;54448;51.472;-2.574;2022-08-19T12:10:21;15.15;;;2.28;;
67665;SDS011;54448;51.472;-2.574;2022-08-19T12:12:47;13.05;;;2.42;;
67665;SDS011;54448;51.472;-2.574;2022-08-19T12:15:13;11.15;;;2.17;;
67665;SDS011;54448;51.472;-2.574;2022-08-19T12:17:39;12.50;;;2.45;;
67665;SDS011;54448;51.472;-2.574;2022-08-19T12:20:09;13.00;;;2.38;;
67665;SDS011;54448;51.472;-2.574;2022-08-19T12:22:38;15.57;;;2.50;;
67665;SDS011;54448;51.472;-2.574;2022-08-19T12:25:06;14.50;;;2.20;;
67665;SDS011;54448;51.472;-2.574;2022-08-19T12:27:33;14.82;;;2.33;;
67665;SDS011;54448;51.472;-2.574;2022-08-19T12:30:00;17.10;;;2.70;;
67665;SDS011;54448;51.472;-2.574;2022-08-19T12:32:27;15.15;;;2.63;;
67665;SDS011;54448;51.472;-2.574;2022-08-19T12:34:52;11.55;;;2.13;;
67665;SDS011;54448;51.472;-2.574;2022-08-19T12:37:19;15.82;;;2.65;;
67665;SDS011;54448;51.472;-2.574;2022-08-19T12:39:44;12.18;;;2.50;;
67665;SDS011;54448;51.472;-2.574;2022-08-19T12:42:10;15.90;;;2.42;;
67665;SDS011;54448;51.472;-2.574;2022-08-19T12:44:37;22.83;;;2.47;;
67665;SDS011;54448;51.472;-2.574;2022-08-19T12:47:04;13.15;;;2.85;;
67665;SDS011;54448;51.472;-2.574;2022-08-19T12:49:31;13.75;;;2.58;;
67665;SDS011;54448;51.472;-2.574;2022-08-19T12:51:58;12.80;;;2.47;;
67665;SDS011;54448;51.472;-2.574;2022-08-19T12:54:25;10.05;;;1.77;;
67665;SDS011;54448;51.472;-2.574;2022-08-19T12:56:51;13.90;;;2.10;;
67665;SDS011;54448;51.472;-2.574;2022-08-19T12:59:16;16.98;;;1.98;;
67665;SDS011;54448;51.472;-2.574;2022-08-19T13:01:43;11.02;;;2.13;;
67665;SDS011;54448;51.472;-2.574;2022-08-19T13:04:09;15.48;;;2.50;;
67665;SDS011;54448;51.472;-2.574;2022-08-19T13:06:35;14.40;;;2.13;;
67665;SDS011;54448;51.472;-2.574;2022-08-19T13:09:01;18.00;;;2.35;;
67665;SDS011;54448;51.472;-2.574;2022-08-19T13:11:27;13.38;;;2.33;;
67665;SDS011;54448;51.472;-2.574;2022-08-19T13:13:57;12.23;;;2.25;;
67665;SDS011;54448;51.472;-2.574;2022-08-19T13:16:23;8.88;;;2.22;;
67665;SDS011;54448;51.472;-2.574;2022-08-19T13:18:51;15.48;;;2.17;;
67665;SDS011;54448;51.472;-2.574;2022-08-19T13:21:17;9.80;;;2.35;;
67665;SDS011;54448;51.472;-2.574;2022-08-19T13:23:45;14.73;;;2.15;;
67665;SDS011;54448;51.472;-2.574;2022-08-19T13:26:10;12.70;;;2.47;;
67665;SDS011;54448;51.472;-2.574;2022-08-19T13:28:36;15.55;;;2.88;;
67665;SDS011;54448;51.472;-2.574;2022-08-19T13:31:22;16.00;;;2.75;;
67665;SDS011;54448;51.472;-2.574;2022-08-19T13:34:07;13.63;;;2.35;;
67665;SDS011;54448;51.472;-2.574;2022-08-19T13:36:32;14.85;;;2.53;;
67665;SDS011;54448;51.472;-2.574;2022-08-19T13:38:58;12.52;;;2.20;;
67665;SDS011;54448;51.472;-2.574;2022-08-19T13:41:24;13.30;;;2.53;;
67665;SDS011;54448;51.472;-2.574;2022-08-19T13:43:50;12.95;;;2.30;;
67665;SDS011;54448;51.472;-2.574;2022-08-19T13:46:15;14.82;;;2.35;;
67665;SDS011;54448;51.472;-2.574;2022-08-19T13:48:41;12.77;;;2.47;;
67665;SDS011;54448;51.472;-2.574;2022-08-19T13:51:06;16.15;;;1.95;;
67665;SDS011;54448;51.472;-2.574;2022-08-19T13:53:35;13.10;;;1.80;;
67665;SDS011;54448;51.472;-2.574;2022-08-19T13:56:12;18.80;;;1.92;;
67665;SDS011;54448;51.472;-2.574;2022-08-19T13:58:39;9.45;;;1.80;;
67665;SDS011;54448;51.472;-2.574;2022-08-19T14:01:05;9.90;;;1.80;;
67665;SDS011;54448;51.472;-2.574;2022-08-19T14:03:32;7.82;;;1.75;;
67665;SDS011;54448;51.472;-2.574;2022-08-19T14:05:58;7.72;;;1.38;;
67665;SDS011;54448;51.472;-2.574;2022-08-19T14:08:24;8.82;;;1.80;;
67665;SDS011;54448;51.472;-2.574;2022-08-19T14:10:49;10.10;;;2.05;;
67665;SDS011;54448;51.472;-2.574;2022-08-19T14:13:16;8.93;;;1.77;;
67665;SDS011;54448;51.472;-2.574;2022-08-19T14:15:44;7.70;;;1.85;;
67665;SDS011;54448;51.472;-2.574;2022-08-19T14:18:10;13.57;;;1.75;;
67665;SDS011;54448;51.472;-2.574;2022-08-19T14:20:36;7.80;;;1.40;;
67665;SDS011;54448;51.472;-2.574;2022-08-19T14:23:02;8.05;;;1.70;;
67665;SDS011;54448;51.472;-2.574;2022-08-19T14:25:30;6.55;;;1.45;;
67665;SDS011;54448;51.472;-2.574;2022-08-19T14:27:56;10.50;;;1.88;;
67665;SDS011;54448;51.472;-2.574;2022-08-19T14:30:23;12.63;;;2.05;;
67665;SDS011;54448;51.472;-2.574;2022-08-19T14:32:52;8.38;;;1.60;;